createdAt,value
2023-03-03T00:03:45.355Z,28.15
2023-03-03T00:08:47.465Z,28.85
2023-03-03T00:13:51.979Z,30.00
2023-03-03T00:18:54.638Z,29.27
2023-03-03T00:24:23.789Z,34.70
2023-03-03T00:29:31.734Z,34.72
2023-03-03T00:34:34.236Z,40.47
2023-03-03T00:39:37.984Z,42.85
2023-03-03T00:44:46.787Z,39.90
2023-03-03T00:49:48.564Z,38.33
2023-03-03T00:54:50.212Z,39.08
2023-03-03T00:59:51.832Z,37.30
2023-03-03T01:04:56.490Z,39.08
2023-03-03T01:09:58.156Z,36.40
2023-03-03T01:14:59.876Z,37.70
2023-03-03T01:20:02.758Z,38.05
2023-03-03T01:25:04.854Z,37.90
2023-03-03T01:30:08.080Z,38.20
2023-03-03T01:35:09.844Z,38.13
2023-03-03T01:40:21.407Z,35.88
2023-03-03T01:45:27.344Z,37.47
2023-03-03T01:50:38.618Z,38.05
2023-03-03T01:55:42.068Z,43.15
2023-03-03T02:00:50.607Z,37.35
2023-03-03T02:05:55.552Z,35.08
2023-03-03T02:10:57.938Z,35.20
2023-03-03T02:16:00.984Z,34.63
2023-03-03T02:21:10.034Z,35.17
2023-03-03T02:26:22.776Z,32.00
2023-03-03T02:31:30.565Z,31.73
2023-03-03T02:36:35.970Z,32.22
2023-03-03T02:42:16.567Z,31.45
2023-03-03T02:47:24.033Z,30.10
2023-03-03T02:52:25.757Z,28.48
2023-03-03T02:57:27.480Z,29.15
2023-03-03T03:02:29.405Z,26.73
2023-03-03T03:07:31.189Z,27.10
2023-03-03T03:12:32.956Z,28.75
2023-03-03T03:17:38.555Z,28.27
2023-03-03T03:22:41.549Z,28.38
2023-03-03T03:27:43.973Z,28.10
2023-03-03T03:32:45.949Z,28.97
2023-03-03T03:37:47.711Z,30.13
2023-03-03T03:42:49.419Z,30.77
2023-03-03T03:47:51.205Z,30.38
2023-03-03T03:52:53.303Z,29.80
2023-03-03T03:57:56.804Z,33.97
2023-03-03T04:02:58.970Z,28.15
2023-03-03T04:08:01.134Z,28.77
2023-03-03T04:13:02.984Z,28.70
2023-03-03T04:18:05.114Z,28.52
2023-03-03T04:23:07.888Z,27.60
2023-03-03T04:28:10.759Z,28.25
2023-03-03T04:33:13.725Z,26.08
2023-03-03T04:38:16.318Z,29.00
2023-03-03T04:43:19.455Z,28.15
2023-03-03T04:48:21.859Z,25.92
2023-03-03T04:53:24.178Z,29.55
2023-03-03T04:58:26.728Z,29.60
2023-03-03T05:03:30.350Z,25.52
2023-03-03T05:08:32.138Z,26.08
2023-03-03T05:13:33.755Z,26.88
2023-03-03T05:18:35.485Z,25.73
2023-03-03T05:23:37.086Z,28.83
2023-03-03T05:28:38.789Z,27.95
2023-03-03T05:33:40.394Z,25.88
2023-03-03T05:38:42.007Z,27.80
2023-03-03T05:43:43.782Z,29.40
2023-03-03T05:48:45.818Z,25.58
2023-03-03T05:53:47.568Z,30.52
2023-03-03T05:58:49.192Z,31.25
2023-03-03T06:03:50.818Z,28.38
2023-03-03T06:08:55.540Z,29.10
2023-03-03T06:13:59.177Z,27.15
2023-03-03T06:19:01.482Z,29.67
2023-03-03T06:24:03.108Z,27.98
2023-03-03T06:29:04.803Z,30.08
2023-03-03T06:34:06.462Z,30.55
2023-03-03T06:39:08.109Z,27.35
2023-03-03T06:44:11.900Z,28.38
2023-03-03T06:49:13.524Z,29.10
2023-03-03T06:54:20.465Z,29.25
2023-03-03T06:59:22.411Z,27.95
2023-03-03T07:04:33.755Z,27.13
2023-03-03T07:09:35.475Z,26.63
2023-03-03T07:14:51.640Z,27.30
2023-03-03T07:19:53.928Z,33.42
2023-03-03T07:25:01.919Z,30.38
2023-03-03T07:30:24.174Z,29.40
2023-03-03T07:35:43.224Z,28.67
2023-03-03T07:40:51.421Z,27.67
2023-03-03T07:46:02.741Z,28.25
2023-03-03T07:51:15.282Z,27.00
2023-03-03T07:56:30.346Z,29.38
2023-03-03T08:01:41.414Z,26.75
2023-03-03T08:06:50.584Z,25.33
2023-03-03T08:11:57.819Z,27.83
2023-03-03T08:17:01.679Z,26.77
2023-03-03T08:22:15.035Z,25.50
2023-03-03T08:27:16.646Z,24.13
2023-03-03T08:32:18.622Z,24.33
2023-03-03T08:37:20.317Z,25.20
2023-03-03T08:42:21.921Z,21.80
2023-03-03T08:47:23.552Z,25.15
2023-03-03T08:52:25.269Z,23.17
2023-03-03T08:57:26.929Z,23.48
2023-03-03T09:02:28.683Z,23.25
2023-03-03T09:07:30.403Z,29.45
2023-03-03T09:12:40.889Z,20.25
2023-03-03T09:17:44.514Z,19.90
2023-03-03T09:22:46.199Z,19.90
2023-03-03T09:27:48.078Z,19.98
2023-03-03T09:32:49.920Z,17.75
2023-03-03T09:37:51.806Z,17.83
2023-03-03T09:43:18.322Z,13.95
2023-03-03T09:48:47.870Z,16.85
2023-03-03T09:53:52.385Z,14.93
2023-03-03T09:59:19.991Z,11.63
2023-03-03T10:04:52.335Z,13.15
2023-03-03T10:09:59.681Z,12.60
2023-03-03T10:15:01.238Z,9.68
2023-03-03T10:20:21.780Z,9.10
2023-03-03T10:25:31.737Z,10.02
2023-03-03T10:30:42.709Z,8.73
2023-03-03T10:36:11.975Z,9.95
2023-03-03T10:41:51.149Z,8.20
2023-03-03T10:47:10.023Z,8.75
2023-03-03T10:52:30.482Z,8.98
2023-03-03T10:57:46.932Z,9.02
2023-03-03T11:03:12.066Z,8.18
2023-03-03T11:08:16.598Z,9.23
2023-03-03T11:13:41.011Z,10.57
2023-03-03T11:19:05.771Z,9.25
2023-03-03T11:24:39.340Z,9.23
2023-03-03T11:30:01.250Z,8.38
2023-03-03T11:35:08.983Z,10.20
2023-03-03T11:40:20.991Z,8.30
2023-03-03T11:45:32.406Z,7.25
2023-03-03T11:51:06.328Z,7.85
2023-03-03T11:56:22.165Z,7.40
2023-03-03T12:01:36.013Z,7.68
2023-03-03T12:07:12.943Z,7.50
2023-03-03T12:12:24.303Z,8.02
2023-03-03T12:17:40.923Z,7.38
2023-03-03T12:23:06.433Z,6.20
2023-03-03T12:28:36.990Z,6.80
2023-03-03T12:33:59.088Z,6.25
2023-03-03T12:39:34.084Z,5.82
2023-03-03T12:44:59.388Z,5.25
2023-03-03T12:50:27.542Z,5.28
2023-03-03T12:55:52.346Z,5.85
2023-03-03T13:00:58.344Z,5.68
2023-03-03T13:06:23.352Z,6.25
2023-03-03T13:11:29.175Z,5.22
2023-03-03T13:16:49.326Z,4.95
2023-03-03T13:21:56.223Z,5.82
2023-03-03T13:27:06.019Z,5.25
2023-03-03T13:32:35.252Z,5.15
2023-03-03T13:37:43.483Z,4.90
2023-03-03T13:42:59.661Z,5.25
2023-03-03T13:48:32.185Z,5.43
2023-03-03T13:53:34.124Z,5.50
2023-03-03T13:59:02.106Z,4.65
2023-03-03T14:04:13.516Z,6.18
2023-03-03T14:09:34.006Z,5.70
2023-03-03T14:14:42.520Z,5.85
2023-03-03T14:19:52.604Z,5.60
2023-03-03T14:25:08.170Z,5.25
2023-03-03T14:30:40.858Z,5.57
2023-03-03T14:36:03.069Z,5.55
2023-03-03T14:41:15.503Z,6.13
2023-03-03T14:46:36.541Z,6.80
2023-03-03T14:51:43.066Z,7.22
2023-03-03T14:57:06.178Z,7.88
2023-03-03T15:02:17.057Z,6.05
2023-03-03T15:07:37.705Z,7.25
2023-03-03T15:12:42.641Z,6.68
2023-03-03T15:17:50.431Z,5.93
2023-03-03T15:23:05.678Z,8.48
2023-03-03T15:28:08.319Z,8.50
2023-03-03T15:33:35.173Z,8.00
2023-03-03T15:38:49.676Z,9.50
2023-03-03T15:44:00.909Z,10.20
2023-03-03T15:49:41.187Z,8.93
2023-03-03T15:55:08.894Z,9.55
2023-03-03T16:00:22.812Z,11.50
2023-03-03T16:05:40.592Z,13.48
2023-03-03T16:11:10.814Z,11.73
2023-03-03T16:16:20.491Z,15.15
2023-03-03T16:21:59.805Z,16.35
2023-03-03T16:27:16.833Z,14.63
2023-03-03T16:32:39.361Z,18.42
2023-03-03T16:38:06.814Z,21.77
2023-03-03T16:43:29.773Z,21.45
2023-03-03T16:48:45.814Z,19.75
2023-03-03T16:54:15.422Z,24.40
2023-03-03T16:59:45.910Z,30.38
2023-03-03T17:05:03.168Z,26.83
2023-03-03T17:10:32.413Z,28.52
2023-03-03T17:15:51.231Z,29.05
2023-03-03T17:21:00.313Z,23.85
2023-03-03T17:26:04.651Z,20.60
2023-03-03T17:31:30.553Z,24.23
2023-03-03T17:37:03.536Z,25.35
2023-03-03T17:42:11.971Z,26.52
2023-03-03T17:47:26.754Z,25.63
2023-03-03T17:52:47.241Z,26.40
2023-03-03T17:58:13.096Z,28.80
2023-03-03T18:03:22.940Z,27.67
2023-03-03T18:09:13.297Z,31.08
2023-03-03T18:14:30.160Z,31.10
2023-03-03T18:19:50.366Z,31.92
2023-03-03T18:24:51.925Z,31.88
2023-03-03T18:30:20.266Z,34.00
2023-03-03T18:35:37.588Z,30.00
2023-03-03T18:41:05.904Z,30.85
2023-03-03T18:46:22.888Z,28.48
2023-03-03T18:51:39.875Z,25.70
2023-03-03T18:56:58.268Z,26.63
2023-03-03T19:02:24.723Z,25.02
2023-03-03T19:07:48.786Z,28.38
2023-03-03T19:12:58.189Z,26.30
2023-03-03T19:18:13.814Z,25.30
2023-03-03T19:23:18.435Z,26.55
2023-03-03T19:28:38.277Z,27.42
2023-03-03T19:34:06.331Z,35.97
2023-03-03T19:39:20.706Z,24.60
2023-03-03T19:44:44.163Z,24.02
2023-03-03T19:50:30.188Z,23.95
2023-03-03T19:55:43.218Z,24.45
2023-03-03T20:01:17.998Z,25.48
2023-03-03T20:06:39.863Z,24.15
2023-03-03T20:12:00.097Z,23.80
2023-03-03T20:17:35.950Z,23.08
2023-03-03T20:22:58.956Z,26.98
2023-03-03T20:28:10.031Z,23.42
2023-03-03T20:33:32.958Z,23.48
2023-03-03T20:38:46.332Z,26.10
2023-03-03T20:44:06.356Z,27.70
2023-03-03T20:49:37.580Z,29.58
2023-03-03T20:54:51.723Z,24.73
2023-03-03T21:00:03.506Z,28.88
2023-03-03T21:05:17.243Z,27.48
2023-03-03T21:10:24.387Z,27.42
2023-03-03T21:15:33.893Z,31.90
2023-03-03T21:20:35.874Z,30.73
2023-03-03T21:25:40.517Z,25.92
2023-03-03T21:31:01.363Z,27.20
2023-03-03T21:36:03.361Z,33.95
2023-03-03T21:41:05.816Z,29.95
2023-03-03T21:46:07.708Z,29.70
2023-03-03T21:51:11.124Z,32.05
2023-03-03T21:56:13.982Z,31.77
2023-03-03T22:01:15.656Z,33.72
2023-03-03T22:06:17.652Z,31.77
2023-03-03T22:11:19.259Z,30.33
2023-03-03T22:16:20.928Z,31.45
2023-03-03T22:21:22.957Z,30.15
2023-03-03T22:26:24.821Z,30.65
2023-03-03T22:31:26.998Z,29.33
2023-03-03T22:36:28.798Z,30.48
2023-03-03T22:41:30.558Z,28.75
2023-03-03T22:46:32.201Z,29.45
2023-03-03T22:51:33.864Z,31.88
2023-03-03T22:56:35.706Z,34.72
2023-03-03T23:01:37.309Z,30.13
2023-03-03T23:06:38.959Z,34.88
2023-03-03T23:11:40.601Z,29.92
2023-03-03T23:16:42.257Z,28.63
2023-03-03T23:21:43.894Z,30.88
2023-03-03T23:26:45.518Z,29.42
2023-03-03T23:31:47.169Z,25.65
2023-03-03T23:36:48.819Z,26.77
2023-03-03T23:41:50.508Z,31.52
2023-03-03T23:46:52.255Z,28.60
2023-03-03T23:51:53.938Z,26.20
2023-03-03T23:56:55.875Z,26.40
